Spalding, Missouri
Current Conditions -  °F | °C
As of 4:35 AM on Thursday 29 Jan 2015 (Local Time) from KHAE Reporting Station
Overcast Overcast  
Wind Chill: 31°   Ceiling: 1500
Heat Index: 41°   Visibility: 10mi
Dew Point: 32°   Wind: 25mph
Humidity: 70%   Direction: 300°WNW
Pressure: 29.88"   Gusts: 31mph
Location:  39.7145°N, 91.4209°W
Report Text: KHAE 291035Z AUTO 30022G27KT 10SM OVC015 05/00 A2988 RMK AO2
Loading
Personal Weather Stations






























Interactive Weather Map New forecast layout! Learn more

10-Day Weather Forecast

Advertisements
Track Severe Weather on mobile